createdAt,value
2018-06-04T00:02:23.180Z,3.90
2018-06-04T00:04:51.660Z,4.80
2018-06-04T00:07:20.075Z,4.77
2018-06-04T00:09:48.588Z,4.77
2018-06-04T00:12:16.994Z,4.60
2018-06-04T00:14:45.512Z,4.60
2018-06-04T00:17:13.981Z,4.87
2018-06-04T00:19:42.580Z,4.60
2018-06-04T00:22:11.080Z,4.87
2018-06-04T00:24:39.473Z,4.40
2018-06-04T00:27:07.883Z,4.77
2018-06-04T00:29:36.461Z,3.80
2018-06-04T00:32:04.936Z,4.40
2018-06-04T00:34:33.533Z,4.33
2018-06-04T00:37:02.008Z,4.33
2018-06-04T00:39:30.451Z,4.07
2018-06-04T00:41:58.919Z,4.30
2018-06-04T00:44:27.423Z,4.27
2018-06-04T00:46:55.930Z,3.90
2018-06-04T00:49:24.393Z,4.23
2018-06-04T00:51:52.885Z,4.30
2018-06-04T00:54:21.301Z,4.30
2018-06-04T00:56:49.716Z,4.40
2018-06-04T00:59:18.160Z,4.53
2018-06-04T01:01:46.755Z,4.37
2018-06-04T01:04:15.228Z,4.30
2018-06-04T01:06:43.645Z,4.23
2018-06-04T01:09:12.338Z,4.70
2018-06-04T01:11:40.803Z,4.77
2018-06-04T01:14:09.222Z,4.80
2018-06-04T01:16:37.758Z,4.40
2018-06-04T01:19:06.263Z,4.20
2018-06-04T01:21:34.742Z,4.80
2018-06-04T01:24:03.146Z,4.20
2018-06-04T01:26:31.542Z,4.47
2018-06-04T01:29:00.075Z,4.70
2018-06-04T01:31:28.580Z,4.53
2018-06-04T01:33:57.171Z,4.07
2018-06-04T01:36:25.668Z,4.47
2018-06-04T01:38:54.143Z,4.20
2018-06-04T01:41:22.695Z,4.33
2018-06-04T01:43:51.419Z,4.33
2018-06-04T01:46:19.829Z,4.33
2018-06-04T01:48:48.232Z,4.93
2018-06-04T01:51:17.427Z,5.03
2018-06-04T01:53:45.940Z,4.17
2018-06-04T01:56:14.421Z,4.60
2018-06-04T01:58:42.879Z,4.80
2018-06-04T02:01:11.326Z,4.30
2018-06-04T02:03:39.784Z,5.03
2018-06-04T02:06:08.237Z,4.97
2018-06-04T02:08:36.619Z,4.60
2018-06-04T02:11:05.032Z,4.30
2018-06-04T02:13:33.438Z,4.87
2018-06-04T02:16:01.983Z,5.23
2018-06-04T02:18:30.575Z,4.50
2018-06-04T02:20:59.256Z,5.00
2018-06-04T02:23:27.715Z,4.60
2018-06-04T02:25:56.146Z,4.63
2018-06-04T02:28:24.802Z,4.33
2018-06-04T02:30:53.223Z,4.70
2018-06-04T02:33:21.697Z,4.63
2018-06-04T02:35:50.204Z,4.40
2018-06-04T02:38:18.697Z,4.70
2018-06-04T02:40:47.180Z,5.10
2018-06-04T02:43:15.694Z,4.70
2018-06-04T02:45:44.164Z,4.90
2018-06-04T02:48:12.597Z,4.77
2018-06-04T02:50:40.693Z,5.03
2018-06-04T02:53:09.120Z,5.00
2018-06-04T02:55:37.686Z,4.80
2018-06-04T02:58:06.156Z,4.50
2018-06-04T03:00:34.560Z,4.10
2018-06-04T03:03:02.952Z,5.10
2018-06-04T03:05:31.370Z,4.40
2018-06-04T03:07:59.889Z,4.53
2018-06-04T03:10:28.386Z,4.50
2018-06-04T03:12:56.823Z,5.33
2018-06-04T03:15:25.312Z,4.73
2018-06-04T03:17:53.804Z,5.27
2018-06-04T03:20:22.229Z,4.50
2018-06-04T03:22:50.723Z,5.53
2018-06-04T03:25:19.142Z,4.40
2018-06-04T03:27:47.916Z,4.83
2018-06-04T03:30:16.342Z,5.57
2018-06-04T03:32:44.751Z,5.10
2018-06-04T03:35:13.167Z,4.67
2018-06-04T03:37:41.586Z,4.80
2018-06-04T03:40:10.019Z,4.77
2018-06-04T03:42:38.550Z,4.97
2018-06-04T03:45:06.977Z,4.23
2018-06-04T03:47:35.473Z,4.70
2018-06-04T03:50:04.035Z,4.47
2018-06-04T03:52:32.590Z,5.13
2018-06-04T03:55:01.273Z,5.00
2018-06-04T03:57:30.556Z,5.17
2018-06-04T03:59:59.059Z,4.67
2018-06-04T04:02:27.615Z,4.50
2018-06-04T04:04:56.054Z,4.67
2018-06-04T04:07:24.536Z,5.13
2018-06-04T04:09:53.283Z,4.50
2018-06-04T04:12:21.720Z,4.47
2018-06-04T04:14:50.340Z,4.43
2018-06-04T04:17:18.827Z,5.10
2018-06-04T04:19:47.251Z,4.87
2018-06-04T04:22:15.799Z,5.20
2018-06-04T04:24:44.329Z,5.13
2018-06-04T04:27:12.768Z,4.83
2018-06-04T04:29:41.207Z,4.80
2018-06-04T04:32:09.897Z,5.47
2018-06-04T04:34:38.356Z,4.70
2018-06-04T04:37:06.840Z,5.37
2018-06-04T04:39:35.320Z,5.40
2018-06-04T04:42:03.820Z,4.77
2018-06-04T04:44:32.425Z,4.53
2018-06-04T04:47:00.864Z,5.10
2018-06-04T04:49:29.391Z,5.30
2018-06-04T04:51:57.868Z,4.70
2018-06-04T04:54:26.526Z,5.57
2018-06-04T04:56:55.053Z,5.30
2018-06-04T04:59:23.474Z,5.20
2018-06-04T05:01:51.967Z,6.10
2018-06-04T05:04:20.394Z,5.80
2018-06-04T05:06:48.907Z,5.83
2018-06-04T05:09:17.356Z,5.60
2018-06-04T05:11:45.956Z,6.03
2018-06-04T05:14:14.164Z,5.73
2018-06-04T05:16:42.727Z,5.67
2018-06-04T05:19:11.176Z,5.37
2018-06-04T05:21:39.695Z,5.87
2018-06-04T05:24:08.210Z,5.60
2018-06-04T05:26:36.611Z,5.63
2018-06-04T05:29:05.134Z,5.73
2018-06-04T05:31:33.546Z,5.40
2018-06-04T05:34:01.959Z,5.53
2018-06-04T05:36:30.479Z,7.13
2018-06-04T05:38:58.908Z,6.10
2018-06-04T05:41:27.592Z,5.53
2018-06-04T05:43:56.039Z,6.80
2018-06-04T05:46:24.617Z,6.37
2018-06-04T05:48:53.168Z,5.80
2018-06-04T05:51:21.803Z,5.20
2018-06-04T05:53:50.201Z,4.90
2018-06-04T05:56:18.896Z,5.27
2018-06-04T05:58:47.413Z,4.67
2018-06-04T06:01:15.984Z,4.90
2018-06-04T06:03:44.463Z,4.43
2018-06-04T06:06:12.953Z,5.13
2018-06-04T06:08:41.416Z,5.07
2018-06-04T06:11:09.921Z,5.23
2018-06-04T06:13:38.468Z,5.00
2018-06-04T06:16:06.896Z,4.50
2018-06-04T06:18:35.331Z,4.57
2018-06-04T06:21:03.951Z,4.70
2018-06-04T06:23:32.399Z,4.40
2018-06-04T06:26:00.923Z,5.13
2018-06-04T06:28:29.485Z,4.70
2018-06-04T06:30:58.050Z,4.80
2018-06-04T06:33:26.508Z,4.97
2018-06-04T06:35:55.016Z,4.40
2018-06-04T06:38:23.474Z,4.67
2018-06-04T06:40:52.170Z,4.57
2018-06-04T06:43:20.638Z,4.77
2018-06-04T06:45:49.092Z,4.80
2018-06-04T06:48:17.629Z,4.13
2018-06-04T06:50:46.208Z,4.73
2018-06-04T06:53:14.680Z,5.00
2018-06-04T06:55:43.224Z,4.80
2018-06-04T06:58:11.695Z,4.80
2018-06-04T07:00:40.176Z,4.67
2018-06-04T07:03:08.665Z,5.50
2018-06-04T07:05:37.122Z,5.00
2018-06-04T07:08:05.711Z,4.33
2018-06-04T07:10:34.340Z,4.37
2018-06-04T07:13:02.867Z,4.60
2018-06-04T07:15:31.477Z,5.07
2018-06-04T07:18:00.115Z,4.60
2018-06-04T07:20:28.599Z,4.50
2018-06-04T07:22:57.164Z,4.63
2018-06-04T07:25:25.607Z,4.53
2018-06-04T07:27:54.291Z,4.47
2018-06-04T07:30:22.862Z,4.10
2018-06-04T07:32:51.313Z,4.10
2018-06-04T07:35:19.819Z,3.90
2018-06-04T07:37:48.366Z,3.77
2018-06-04T07:40:16.852Z,3.60
2018-06-04T07:42:45.532Z,3.73
2018-06-04T07:45:14.028Z,3.50
2018-06-04T07:47:42.153Z,3.33
2018-06-04T07:50:15.764Z,3.60
2018-06-04T07:52:44.586Z,3.67
2018-06-04T07:55:13.012Z,3.10
2018-06-04T07:57:41.434Z,3.60
2018-06-04T08:00:10.214Z,3.37
2018-06-04T08:02:38.764Z,3.30
2018-06-04T08:05:07.226Z,3.00
2018-06-04T08:07:35.784Z,3.17
2018-06-04T08:10:04.759Z,2.87
2018-06-04T08:12:33.200Z,3.00
2018-06-04T08:15:01.626Z,3.07
2018-06-04T08:17:30.109Z,2.90
2018-06-04T08:19:58.333Z,3.37
2018-06-04T08:22:26.863Z,3.17
2018-06-04T08:24:55.364Z,3.17
2018-06-04T08:27:23.884Z,3.17
2018-06-04T08:29:52.327Z,2.97
2018-06-04T08:32:20.882Z,3.10
2018-06-04T08:34:49.378Z,2.87
2018-06-04T08:37:17.846Z,3.00
2018-06-04T08:39:46.392Z,2.87
2018-06-04T08:42:14.915Z,3.07
2018-06-04T08:44:43.511Z,2.87
2018-06-04T08:47:11.955Z,3.00
2018-06-04T08:49:40.460Z,3.23
2018-06-04T08:52:08.983Z,2.90
2018-06-04T08:54:37.530Z,3.27
2018-06-04T08:57:06.025Z,2.80
2018-06-04T08:59:34.467Z,3.43
2018-06-04T09:02:03.073Z,2.80
2018-06-04T09:04:31.610Z,3.27
2018-06-04T09:07:00.060Z,3.27
2018-06-04T09:09:28.539Z,3.47
2018-06-04T09:11:56.973Z,3.43
2018-06-04T09:14:25.479Z,3.07
2018-06-04T09:16:54.679Z,2.43
2018-06-04T09:19:23.205Z,2.60
2018-06-04T09:21:51.640Z,2.80
2018-06-04T09:24:20.175Z,2.83
2018-06-04T09:26:48.598Z,2.57
2018-06-04T09:29:17.122Z,2.50
2018-06-04T09:31:45.663Z,2.67
2018-06-04T09:34:14.123Z,2.67
2018-06-04T09:36:42.660Z,2.40
2018-06-04T09:39:11.237Z,2.57
2018-06-04T09:41:39.675Z,2.57
2018-06-04T09:44:08.212Z,2.33
2018-06-04T09:46:36.668Z,2.60
2018-06-04T09:49:05.585Z,2.40
2018-06-04T09:51:34.192Z,2.97
2018-06-04T09:54:02.640Z,2.23
2018-06-04T09:56:31.087Z,2.37
2018-06-04T09:58:59.532Z,2.67
2018-06-04T10:01:27.958Z,2.43
2018-06-04T10:03:56.419Z,2.63
2018-06-04T10:06:24.876Z,2.30
2018-06-04T10:08:53.356Z,1.97
2018-06-04T10:11:21.851Z,2.20
2018-06-04T10:13:50.380Z,2.30
2018-06-04T10:16:18.943Z,2.20
2018-06-04T10:18:47.439Z,2.20
2018-06-04T10:21:15.995Z,2.23
2018-06-04T10:23:44.417Z,1.90
2018-06-04T10:26:12.975Z,2.10
2018-06-04T10:28:41.423Z,2.27
2018-06-04T10:31:09.856Z,2.33
2018-06-04T10:33:38.511Z,2.80
2018-06-04T10:36:06.919Z,2.20
2018-06-04T10:38:35.500Z,2.17
2018-06-04T10:41:04.314Z,2.00
2018-06-04T10:43:32.822Z,2.00
2018-06-04T10:46:01.517Z,2.20
2018-06-04T10:48:30.400Z,2.20
2018-06-04T10:50:59.004Z,2.10
2018-06-04T10:53:27.435Z,2.13
2018-06-04T10:55:55.890Z,2.40
2018-06-04T10:58:24.433Z,2.30
2018-06-04T11:00:53.059Z,2.10
2018-06-04T11:03:21.506Z,2.10
2018-06-04T11:05:50.201Z,2.20
2018-06-04T11:08:18.655Z,2.33
2018-06-04T11:10:47.140Z,1.97
2018-06-04T11:13:15.604Z,1.97
2018-06-04T11:15:44.076Z,2.10
2018-06-04T11:18:12.481Z,1.80
2018-06-04T11:20:40.987Z,2.33
2018-06-04T11:23:09.434Z,2.30
2018-06-04T11:25:38.016Z,2.53
2018-06-04T11:28:06.548Z,2.40
2018-06-04T11:30:34.984Z,2.43
2018-06-04T11:33:03.392Z,2.50
2018-06-04T11:35:31.888Z,2.40
2018-06-04T11:38:00.407Z,2.97
2018-06-04T11:40:28.991Z,3.00
2018-06-04T11:42:57.456Z,3.10
2018-06-04T11:45:26.005Z,3.13
2018-06-04T11:47:54.690Z,2.90
2018-06-04T11:50:23.166Z,3.13
2018-06-04T11:52:51.648Z,3.10
2018-06-04T11:55:20.103Z,3.10
2018-06-04T11:57:48.535Z,3.50
2018-06-04T12:00:17.028Z,3.47
2018-06-04T12:02:45.482Z,3.30
2018-06-04T12:05:13.956Z,3.20
2018-06-04T12:07:42.398Z,3.20
2018-06-04T12:10:10.836Z,3.30
2018-06-04T12:12:39.377Z,3.30
2018-06-04T12:15:07.797Z,2.73
2018-06-04T12:17:36.518Z,3.33
2018-06-04T12:20:05.175Z,2.70
2018-06-04T12:22:33.877Z,3.17
2018-06-04T12:25:02.386Z,3.17
2018-06-04T12:27:30.884Z,3.30
2018-06-04T12:29:59.365Z,3.53
2018-06-04T12:32:27.837Z,3.73
2018-06-04T12:34:56.347Z,3.10
2018-06-04T12:37:24.956Z,3.50
2018-06-04T12:39:53.489Z,3.40
2018-06-04T12:42:22.147Z,3.10
2018-06-04T12:44:50.716Z,3.10
2018-06-04T12:47:19.323Z,3.60
2018-06-04T12:49:47.812Z,3.10
2018-06-04T12:52:16.243Z,2.70
2018-06-04T12:54:44.702Z,2.90
2018-06-04T12:57:13.210Z,2.93
2018-06-04T12:59:41.848Z,2.77
2018-06-04T13:02:10.345Z,2.70
2018-06-04T13:04:38.840Z,2.53
2018-06-04T13:07:07.516Z,2.77
2018-06-04T13:09:35.979Z,2.63
2018-06-04T13:12:04.478Z,3.27
2018-06-04T13:14:33.067Z,3.03
2018-06-04T13:17:01.554Z,2.60
2018-06-04T13:19:30.050Z,3.10
2018-06-04T13:21:58.539Z,2.93
2018-06-04T13:24:27.042Z,2.57
2018-06-04T13:26:55.564Z,2.47
2018-06-04T13:29:24.231Z,2.83
2018-06-04T13:31:52.829Z,2.50
2018-06-04T13:34:21.279Z,2.80
2018-06-04T13:36:49.712Z,2.93
2018-06-04T13:39:17.924Z,2.57
2018-06-04T13:41:46.336Z,2.90
2018-06-04T13:44:14.919Z,2.57
2018-06-04T13:46:43.487Z,2.90
2018-06-04T13:49:12.002Z,2.73
2018-06-04T13:51:40.744Z,2.53
2018-06-04T13:54:09.264Z,2.67
2018-06-04T13:56:37.865Z,2.30
2018-06-04T13:59:06.080Z,2.15
2018-06-04T14:01:34.563Z,2.62
2018-06-04T14:04:02.994Z,2.30
2018-06-04T14:06:31.218Z,2.52
2018-06-04T14:08:59.645Z,2.30
2018-06-04T14:11:28.230Z,2.25
2018-06-04T14:13:56.668Z,2.42
2018-06-04T14:16:25.148Z,2.02
2018-06-04T14:18:53.607Z,2.20
2018-06-04T14:21:22.056Z,2.15
2018-06-04T14:23:50.736Z,2.65
2018-06-04T14:26:19.183Z,2.50
2018-06-04T14:28:47.765Z,2.52
2018-06-04T14:31:16.472Z,2.45
2018-06-04T14:33:45.070Z,2.60
2018-06-04T14:36:13.464Z,2.27
2018-06-04T14:38:41.992Z,2.40
2018-06-04T14:41:10.571Z,2.05
2018-06-04T14:43:39.153Z,2.30
2018-06-04T14:46:07.728Z,2.30
2018-06-04T14:48:36.234Z,2.30
2018-06-04T14:51:04.707Z,2.10
2018-06-04T14:53:33.296Z,2.70
2018-06-04T14:56:01.892Z,2.35
2018-06-04T14:58:30.351Z,2.33
2018-06-04T15:00:58.810Z,2.42
2018-06-04T15:03:27.282Z,2.47
2018-06-04T15:05:55.844Z,2.60
2018-06-04T15:08:24.494Z,2.12
2018-06-04T15:10:52.655Z,2.47
2018-06-04T15:13:21.190Z,2.25
2018-06-04T15:15:49.740Z,2.50
2018-06-04T15:18:18.460Z,2.47
2018-06-04T15:20:47.267Z,2.85
2018-06-04T15:23:15.923Z,2.67
2018-06-04T15:25:44.684Z,3.00
2018-06-04T15:28:13.291Z,2.33
2018-06-04T15:30:41.759Z,2.85
2018-06-04T15:33:10.408Z,2.77
2018-06-04T15:35:38.999Z,2.58
2018-06-04T15:38:07.545Z,2.70
2018-06-04T15:40:36.302Z,2.83
2018-06-04T15:43:04.911Z,2.72
2018-06-04T15:45:33.392Z,2.45
2018-06-04T15:48:01.972Z,2.47
2018-06-04T15:50:30.528Z,2.65
2018-06-04T15:52:59.054Z,2.45
2018-06-04T15:55:27.428Z,2.55
2018-06-04T15:57:56.182Z,2.60
2018-06-04T16:00:24.652Z,2.72
2018-06-04T16:02:53.125Z,2.40
2018-06-04T16:05:21.767Z,2.70
2018-06-04T16:07:50.227Z,2.77
2018-06-04T16:10:18.911Z,2.58
2018-06-04T16:12:47.463Z,2.98
2018-06-04T16:15:16.746Z,2.62
2018-06-04T16:17:45.270Z,2.67
2018-06-04T16:20:13.802Z,2.35
2018-06-04T16:22:42.334Z,2.77
2018-06-04T16:25:10.887Z,2.75
2018-06-04T16:27:39.382Z,2.98
2018-06-04T16:30:07.892Z,2.90
2018-06-04T16:32:36.571Z,2.85
2018-06-04T16:35:05.081Z,3.00
2018-06-04T16:37:33.780Z,2.92
2018-06-04T16:40:02.274Z,2.72
2018-06-04T16:42:30.784Z,2.65
2018-06-04T16:44:59.257Z,3.30
2018-06-04T16:47:27.692Z,2.98
2018-06-04T16:49:56.448Z,2.77
2018-06-04T16:52:25.254Z,3.17
2018-06-04T16:54:53.777Z,3.15
2018-06-04T16:57:22.633Z,3.40
2018-06-04T16:59:51.135Z,3.20
2018-06-04T17:02:19.599Z,3.33
2018-06-04T17:04:48.109Z,3.00
2018-06-04T17:07:16.778Z,2.80
2018-06-04T17:09:45.455Z,3.00
2018-06-04T17:12:13.874Z,2.87
2018-06-04T17:14:42.367Z,2.65
2018-06-04T17:17:10.857Z,3.50
2018-06-04T17:19:39.419Z,3.40
2018-06-04T17:22:07.592Z,3.40
2018-06-04T17:24:36.223Z,3.75
2018-06-04T17:27:04.977Z,3.42
2018-06-04T17:29:33.587Z,2.90
2018-06-04T17:32:02.079Z,3.20
2018-06-04T17:34:30.555Z,3.15
2018-06-04T17:36:59.296Z,3.22
2018-06-04T17:39:27.759Z,3.37
2018-06-04T17:41:56.422Z,3.37
2018-06-04T17:44:25.188Z,3.22
2018-06-04T17:46:53.655Z,3.30
2018-06-04T17:49:22.170Z,3.85
2018-06-04T17:51:50.744Z,3.37
2018-06-04T17:54:19.268Z,3.33
2018-06-04T17:56:47.773Z,3.20
2018-06-04T17:59:18.656Z,3.53
2018-06-04T18:01:47.247Z,3.60
2018-06-04T18:04:15.879Z,3.73
2018-06-04T18:06:44.430Z,3.57
2018-06-04T18:09:13.001Z,4.10
2018-06-04T18:11:41.470Z,3.93
2018-06-04T18:14:10.098Z,3.87
2018-06-04T18:16:38.789Z,4.00
2018-06-04T18:19:07.374Z,4.20
2018-06-04T18:21:35.803Z,4.13
2018-06-04T18:24:04.480Z,3.67
2018-06-04T18:26:33.080Z,3.63
2018-06-04T18:29:01.342Z,4.60
2018-06-04T18:31:29.993Z,4.00
2018-06-04T18:33:58.815Z,4.23
2018-06-04T18:36:27.364Z,3.97
2018-06-04T18:38:55.941Z,4.33
2018-06-04T18:41:24.277Z,4.30
2018-06-04T18:43:52.795Z,3.97
2018-06-04T18:46:21.374Z,4.20
2018-06-04T18:48:49.878Z,4.67
2018-06-04T18:51:18.566Z,4.20
2018-06-04T18:53:47.237Z,4.33
2018-06-04T18:56:15.742Z,4.13
2018-06-04T18:58:44.435Z,4.40
2018-06-04T19:01:13.053Z,4.77
2018-06-04T19:03:41.616Z,4.40
2018-06-04T19:06:10.172Z,4.30
2018-06-04T19:08:38.866Z,5.10
2018-06-04T19:11:07.380Z,4.80
2018-06-04T19:13:35.908Z,4.57
2018-06-04T19:16:04.404Z,4.50
2018-06-04T19:18:32.984Z,4.80
2018-06-04T19:21:01.473Z,4.60
2018-06-04T19:23:30.064Z,4.50
2018-06-04T19:25:58.692Z,4.63
2018-06-04T19:28:27.289Z,4.47
2018-06-04T19:30:55.896Z,4.97
2018-06-04T19:33:24.475Z,4.73
2018-06-04T19:35:53.022Z,4.70
2018-06-04T19:38:21.575Z,4.93
2018-06-04T19:40:50.141Z,4.03
2018-06-04T19:43:18.827Z,4.10
2018-06-04T19:45:48.244Z,4.60
2018-06-04T19:48:16.872Z,4.83
2018-06-04T19:50:45.516Z,4.63
2018-06-04T19:53:14.133Z,4.40
2018-06-04T19:55:43.075Z,5.50
2018-06-04T19:58:11.342Z,4.70
2018-06-04T20:00:39.509Z,4.60
2018-06-04T20:03:07.731Z,4.80
2018-06-04T20:05:36.986Z,4.70
2018-06-04T20:08:05.634Z,4.83
2018-06-04T20:10:34.155Z,4.90
2018-06-04T20:13:02.661Z,5.03
2018-06-04T20:15:31.186Z,5.00
2018-06-04T20:17:59.862Z,4.90
2018-06-04T20:20:28.595Z,5.03
2018-06-04T20:22:57.282Z,4.77
2018-06-04T20:25:25.818Z,4.93
2018-06-04T20:27:54.345Z,4.53
2018-06-04T20:30:22.866Z,5.00
2018-06-04T20:32:51.611Z,4.57
2018-06-04T20:35:20.100Z,4.97
2018-06-04T20:37:48.742Z,4.60
2018-06-04T20:40:17.368Z,4.40
2018-06-04T20:42:46.021Z,4.73
2018-06-04T20:45:14.533Z,4.50
2018-06-04T20:47:43.218Z,4.47
2018-06-04T20:50:11.718Z,4.70
2018-06-04T20:52:40.276Z,5.30
2018-06-04T20:55:08.747Z,4.60
2018-06-04T20:57:37.487Z,4.47
2018-06-04T21:00:06.060Z,4.47
2018-06-04T21:02:34.541Z,4.60
2018-06-04T21:05:03.047Z,4.70
2018-06-04T21:07:31.731Z,4.73
2018-06-04T21:10:00.303Z,4.97
2018-06-04T21:12:28.855Z,4.63
2018-06-04T21:14:57.372Z,4.60
2018-06-04T21:17:25.996Z,4.80
2018-06-04T21:19:54.724Z,4.77
2018-06-04T21:22:23.410Z,5.00
2018-06-04T21:24:51.967Z,4.77
2018-06-04T21:27:20.453Z,4.80
2018-06-04T21:29:48.985Z,4.67
2018-06-04T21:32:17.577Z,5.07
2018-06-04T21:34:46.094Z,5.20
2018-06-04T21:37:14.775Z,4.90
2018-06-04T21:39:43.360Z,4.57
2018-06-04T21:42:12.283Z,4.90
2018-06-04T21:44:40.832Z,5.23
2018-06-04T21:47:09.498Z,4.97
2018-06-04T21:49:38.299Z,5.03
2018-06-04T21:52:06.889Z,5.20
2018-06-04T21:54:35.422Z,5.10
2018-06-04T21:57:04.792Z,5.43
2018-06-04T21:59:33.374Z,5.37
2018-06-04T22:02:01.855Z,5.33
2018-06-04T22:04:30.439Z,5.47
2018-06-04T22:06:59.767Z,5.13
2018-06-04T22:09:28.199Z,5.63
2018-06-04T22:11:56.727Z,4.87
2018-06-04T22:14:25.304Z,5.40
2018-06-04T22:16:53.863Z,5.33
2018-06-04T22:19:22.283Z,5.30
2018-06-04T22:21:50.731Z,4.97
2018-06-04T22:24:19.152Z,5.33
2018-06-04T22:26:47.715Z,5.17
2018-06-04T22:29:16.151Z,5.23
2018-06-04T22:31:44.679Z,5.20
2018-06-04T22:34:13.233Z,5.10
2018-06-04T22:36:41.767Z,5.20
2018-06-04T22:39:10.235Z,5.60
2018-06-04T22:41:38.905Z,6.00
2018-06-04T22:44:07.319Z,5.50
2018-06-04T22:46:35.788Z,5.90
2018-06-04T22:49:06.207Z,5.93
2018-06-04T22:51:35.529Z,5.07
2018-06-04T22:54:04.018Z,5.97
2018-06-04T22:56:32.609Z,6.00
2018-06-04T22:59:01.100Z,5.20
2018-06-04T23:01:29.635Z,5.60
2018-06-04T23:03:58.072Z,5.60
2018-06-04T23:06:26.595Z,5.83
2018-06-04T23:08:55.292Z,5.07
2018-06-04T23:11:23.767Z,5.53
2018-06-04T23:13:52.193Z,5.70
2018-06-04T23:16:20.851Z,4.90
2018-06-04T23:18:49.423Z,5.70
2018-06-04T23:21:17.892Z,6.00
2018-06-04T23:23:46.460Z,5.83
2018-06-04T23:26:15.312Z,6.00
2018-06-04T23:28:43.875Z,6.07
2018-06-04T23:31:12.293Z,6.73
2018-06-04T23:33:40.920Z,6.50
2018-06-04T23:36:09.566Z,6.33
2018-06-04T23:38:38.488Z,5.47
2018-06-04T23:41:06.928Z,5.67
2018-06-04T23:43:35.332Z,5.60
2018-06-04T23:46:03.797Z,6.03
2018-06-04T23:48:32.429Z,5.63
2018-06-04T23:51:00.921Z,6.10
2018-06-04T23:53:29.335Z,6.07
2018-06-04T23:55:57.843Z,5.57
2018-06-04T23:58:26.298Z,5.43
